ADDS METAR Data INFO
IDs: Format: Raw Decoded Include TAF

Data at: 0427 UTC 21 Nov 2017

KGVT 210410Z AUTO 15005KT 10SM CLR 10/03 A2998 RMK AO2
KGVT 210350Z AUTO 18004KT 10SM CLR 11/03 A2999 RMK AO2
KGVT 210330Z AUTO 15006KT 10SM CLR 11/03 A2997 RMK AO2
KGVT 210310Z AUTO 16005KT 10SM CLR 11/02 A2998 RMK AO2
KGVT 210250Z AUTO 16006KT 10SM CLR 11/02 A2998 RMK AO2
KGVT 210230Z AUTO 17005KT 10SM CLR 12/02 A2999 RMK AO2
KGVT 210210Z AUTO 16006KT 10SM CLR 12/02 A2998 RMK AO2
KGVT 210150Z AUTO 16006KT 10SM CLR 12/02 A2999 RMK AO2
KGVT 210130Z AUTO 16006KT 10SM CLR 12/02 A2999 RMK AO2
KGVT 210110Z AUTO 16006KT 10SM CLR 11/02 A2999 RMK AO2
KGVT 210050Z AUTO 16006KT 10SM CLR 11/02 A3000 RMK AO2
KGVT 210030Z AUTO 16006KT 10SM CLR 11/02 A3000 RMK AO2
KGVT 210010Z AUTO 16006KT 10SM CLR 12/01 A3000 RMK AO2
KGVT 202350Z AUTO 16006KT 10SM CLR 12/01 A3001 RMK AO2
KGVT 202330Z AUTO 16004KT 10SM CLR 13/01 A3002 RMK AO2
KGVT 202310Z AUTO 16006KT 10SM CLR 15/00 A3001 RMK AO2
KGVT 202250Z AUTO 17008KT 10SM CLR 17/00 A3002 RMK AO2
KGVT 202230Z AUTO 17011KT 10SM CLR A3001 RMK AO2
KGVT 202210Z AUTO 19010KT 10SM CLR 18/00 A3002 RMK AO2
KGVT 202150Z AUTO 19011G16KT 10SM CLR 18/00 A3002 RMK AO2
KGVT 202130Z AUTO 17010G16KT 10SM CLR 19/00 A3002 RMK AO2
KGVT 202110Z AUTO 16012G17KT 10SM CLR 19/00 A3002 RMK AO2 N00N00N00N00N00N00N00N00N00N00N00N00N00
KGVT 202050Z AUTO 20011G19KT 10SM CLR 19/00 A3003 RMK AO2
KGVT 202030Z AUTO 18011G17KT 10SM CLR 19/00 A3004 RMK AO2
KGVT 202010Z AUTO 19010KT 10SM CLR 19/00 A3005 RMK AO2
KGVT 201950Z AUTO 18010G18KT 10SM CLR 19/00 A3005 RMK AO2
KGVT 201930Z AUTO 17013KT 10SM CLR 19/00 A3006 RMK AO2
KGVT 201910Z AUTO 19011G18KT 10SM CLR 18/00 A3007 RMK AO2
KGVT 201850Z AUTO 19011G16KT 10SM CLR 18/00 A3008 RMK AO2
KGVT 201830Z AUTO 20010G18KT 10SM CLR 18/00 A3010 RMK AO2
KGVT 201810Z AUTO 19012G17KT 10SM CLR 18/00 A3012 RMK AO2
KGVT 201750Z AUTO 17013KT 10SM CLR A3014 RMK AO2
KGVT 201730Z AUTO 20013KT 10SM CLR 17/00 A3016 RMK AO2
KGVT 201710Z AUTO 19012G16KT 10SM CLR 17/00 A3017 RMK AO2
KGVT 201650Z AUTO 19012KT 10SM CLR 16/00 A3018 RMK AO2
KGVT 201630Z AUTO 18010G16KT 10SM CLR 15/00 A3019 RMK AO2
KGVT 201610Z AUTO 19013KT 10SM CLR 15/00 A3020 RMK AO2 LTG DSNT S
KGVT 201550Z AUTO 18011G14KT 10SM CLR 14/00 A3022 RMK AO2
KGVT 201530Z AUTO 18010KT 10SM CLR 13/02 A3022 RMK AO2
KGVT 201510Z AUTO 17007KT 10SM CLR 12/03 A3022 RMK AO2
KGVT 201450Z AUTO 18006KT 10SM CLR 11/03 A3023 RMK AO2
KGVT 201430Z AUTO 17003KT 10SM CLR 09/03 A3023 RMK AO2
KGVT 201410Z AUTO 00000KT 10SM CLR 06/06 A3023 RMK AO2
KGVT 201350Z AUTO 00000KT 10SM CLR 04/03 A3022 RMK AO2
KGVT 201330Z AUTO 00000KT 10SM CLR 03/02 A3022 RMK AO2
KGVT 201310Z AUTO 00000KT 10SM CLR 03/02 A3022 RMK AO2
KGVT 201250Z AUTO 00000KT 10SM CLR 03/02 A3021 RMK AO2
KGVT 201230Z AUTO 00000KT 10SM CLR 03/01 A3020 RMK AO2
KGVT 201210Z AUTO 00000KT 10SM CLR 03/01 A3019 RMK AO2
KGVT 201150Z AUTO 00000KT 10SM CLR 03/00 A3019 RMK AO2
KGVT 201130Z AUTO 00000KT 10SM CLR 03/02 A3019 RMK AO2
KGVT 201110Z AUTO 00000KT 10SM CLR 02/00 A3019 RMK AO2
KGVT 201050Z AUTO 00000KT 10SM CLR 03/01 A3019 RMK AO2
KGVT 201030Z AUTO 00000KT 10SM CLR 03/01 A3019 RMK AO2
KGVT 201010Z AUTO 00000KT 10SM CLR 04/01 A3019 RMK AO2
KGVT 200950Z AUTO 00000KT 10SM CLR 05/00 A3020 RMK AO2
KGVT 200930Z AUTO 00000KT 10SM CLR 05/00 A3020 RMK AO2
KGVT 200850Z AUTO 00000KT 10SM CLR 02/01 A3020 RMK AO2
KGVT 200830Z AUTO 00000KT 10SM CLR 04/01 A3021 RMK AO2
KGVT 200810Z AUTO 00000KT 10SM CLR 02/01 A3021 RMK AO2
KGVT 200750Z AUTO 00000KT 10SM CLR 03/01 A3021 RMK AO2
KGVT 200730Z AUTO 00000KT 10SM CLR 03/01 A3022 RMK AO2
KGVT 200710Z AUTO 00000KT 10SM CLR 03/01 A3022 RMK AO2
KGVT 200650Z AUTO 00000KT 10SM CLR 03/01 A3023 RMK AO2
KGVT 200630Z AUTO 00000KT 10SM CLR 03/01 A3024 RMK AO2
KGVT 200610Z AUTO 00000KT 5SM BR CLR 03/01 A3024 RMK AO2
KGVT 200550Z AUTO 00000KT 10SM CLR 04/02 A3024 RMK AO2
KGVT 200530Z AUTO 00000KT 10SM CLR 03/01 A3024 RMK AO2
KGVT 200510Z AUTO 00000KT 10SM CLR 04/02 A3024 RMK AO2
KGVT 200450Z AUTO 00000KT 10SM CLR 04/02 A3025 RMK AO2
KGVT 200430Z AUTO 00000KT 7SM CLR 05/02 A3025 RMK AO2
KGVT 200410Z AUTO 00000KT 10SM CLR 04/01 A3025 RMK AO2
KGVT 200350Z AUTO 00000KT 10SM CLR 05/02 A3026 RMK AO2
KGVT 200330Z AUTO 00000KT 10SM CLR 05/02 A3026 RMK AO2
KGVT 200310Z AUTO 00000KT 10SM CLR 05/02 A3026 RMK AO2
KGVT 200250Z AUTO 00000KT 10SM CLR 06/02 A3025 RMK AO2
KGVT 200230Z AUTO 00000KT 10SM CLR 05/01 A3025 RMK AO2
KGVT 200210Z AUTO 00000KT 10SM CLR 06/02 A3025 RMK AO2
KGVT 200150Z AUTO 00000KT 10SM CLR 06/02 A3025 RMK AO2
KGVT 200130Z AUTO 00000KT 10SM CLR 07/02 A3024 RMK AO2
KGVT 200110Z AUTO 00000KT 10SM CLR 08/01 A3024 RMK AO2
KGVT 200050Z AUTO 00000KT 10SM CLR 07/01 A3024 RMK AO2
KGVT 200030Z AUTO 00000KT 10SM CLR 10/01 A3024 RMK AO2
KGVT 200010Z AUTO 00000KT 10SM CLR 08/02 A3024 RMK AO2
KGVT 192350Z AUTO 00000KT 10SM CLR 10/02 A3024 RMK AO2
KGVT 192330Z AUTO 00000KT 10SM CLR 11/02 A3024 RMK AO2
KGVT 192310Z AUTO 00000KT 10SM CLR 13/00 A3024 RMK AO2
KGVT 192250Z AUTO 00000KT 10SM CLR 16/M03 A3025 RMK AO2
KGVT 192230Z AUTO 00000KT 10SM CLR 16/M04 A3025 RMK AO2
KGVT 192210Z AUTO 00000KT 10SM CLR 17/M04 A3025 RMK AO2
KGVT 192150Z AUTO 00000KT 10SM CLR 17/M04 A3025 RMK AO2
KGVT 192130Z AUTO 00000KT 10SM CLR 17/M05 A3025 RMK AO2
KGVT 192110Z AUTO 07003KT 10SM CLR 17/M04 A3025 RMK AO2
KGVT 192050Z AUTO 00000KT 10SM CLR 17/M04 A3026 RMK AO2
KGVT 192030Z AUTO 00000KT 10SM CLR 17/M04 A3027 RMK AO2
KGVT 192010Z AUTO 36006KT 10SM CLR 17/M04 A3027 RMK AO2
KGVT 191950Z AUTO 03003KT 10SM CLR 17/M04 A3028 RMK AO2
KGVT 191930Z AUTO 02006KT 10SM CLR 17/M04 A3029 RMK AO2
KGVT 191910Z AUTO 36003KT 10SM CLR 17/M04 A3030 RMK AO2
KGVT 191850Z AUTO 00000KT 10SM CLR 17/M03 A3031 RMK AO2
KGVT 191830Z AUTO 08006KT 10SM CLR 17/M03 A3032 RMK AO2
KGVT 191810Z AUTO 05007KT 10SM CLR 17/M03 A3034 RMK AO2
KGVT 191750Z AUTO 09007KT 10SM CLR 16/M03 A3035 RMK AO2
KGVT 191730Z AUTO 36005KT 10SM CLR 16/M03 A3036 RMK AO2
KGVT 191710Z AUTO 02007KT 10SM CLR 16/M02 A3038 RMK AO2
KGVT 191650Z AUTO 03005KT 10SM CLR 15/M02 A3039 RMK AO2
KGVT 191630Z AUTO 36003KT 10SM CLR 15/M01 A3039 RMK AO2